Pacific Navigator — PENDING — position and weather

sailwx.info

Track history (hours):
 
Tides and Currents Weather Stations Pressure Air Temp Water Temp Dewpoint Dewpoint Depression Visibility Wind Speed Wind Dir Waves Ship Positions

Pacific Navigator

Last reported at 2018-Jul-22 08:01 UTC. Time now 2018-Jul-23 00:28 UTC.
Position N 49°07' W 123°11'.

Length 35 m.

Type: Pleasure craft. MMSI: 123456788.

Date/timePositionNaut miles runAvg speedWind from/ knotsBaromVisibWave heightAir tempDewpointWater temp
2018-Jul-22 08:01N 49°07' W 123°11'0 6.6
2018-Jul-22 08:00N 49°07' W 123°12'713.1
2018-Jul-22 07:30N 49°02' W 123°18'6 0.2
2018-Jul-21 04:31N 49°08' W 123°13'220.7
2018-Jul-21 04:24N 49°07' W 123°16'3 4.7
2018-Jul-21 03:53N 49°05' W 123°19'5 0.4
2018-Jul-20 13:19N 49°07' W 123°12'616.2
2018-Jul-20 12:58N 49°05' W 123°20'5 5.6
2018-Jul-20 12:07N 49°08' W 123°13'416.9
2018-Jul-20 11:54N 49°06' W 123°18'2 5.8
2018-Jul-20 11:30N 49°04' W 123°19'6 0.2
2018-Jul-19 12:05N 49°08' W 123°12'417.6
2018-Jul-19 11:53N 49°06' W 123°18'2 4.8
2018-Jul-19 11:30N 49°05' W 123°19'6 3.6
2018-Jul-19 09:55N 49°07' W 123°11'4 7.4
2018-Jul-19 09:26N 49°07' W 123°17'2 0.2
2018-Jul-18 19:28N 49°08' W 123°13'1 2.4
2018-Jul-18 18:58N 49°07' W 123°15'3 0.3
2018-Jul-18 09:58N 49°07' W 123°11'4 7.7
2018-Jul-18 09:27N 49°07' W 123°17'4 1.3
2018-Jul-18 06:33N 49°07' W 123°12'113.5
2018-Jul-18 06:31N 49°08' W 123°13'1 0.1
2018-Jul-17 22:54N 49°08' W 123°13'3 6.8
2018-Jul-17 22:30N 49°07' W 123°17'4 0.2
2018-Jul-17 06:56N 49°07' W 123°12'714.9
2018-Jul-17 06:29N 49°04' W 123°21'2 0.2
2018-Jul-16 23:29N 49°06' W 123°19'5 0.4
2018-Jul-16 11:46N 49°08' W 123°13'614.9
2018-Jul-16 11:23N 49°05' W 123°20'6 2.7
2018-Jul-16 09:06N 49°07' W 123°12'218.7
2018-Jul-16 08:59N 49°08' W 123°15'5 9.7
2018-Jul-16 08:28N 49°03' W 123°19'6 2.5
2018-Jul-16 05:58N 49°07' W 123°12'2 3.5
2018-Jul-16 05:27N 49°08' W 123°15'2 0.4
2018-Jul-16 00:33N 49°07' W 123°12'223.0
2018-Jul-16 00:27N 49°07' W 123°15'3 7.1
2018-Jul-15 23:59N 49°05' W 123°19'6 0.8
2018-Jul-15 16:36N 49°07' W 123°11'0 0.0
2018-Jul-15 16:23N 49°07' W 123°11'0 0.0
2018-Jul-15 15:59N 49°07' W 123°11'0 0.0
2018-Jul-15 15:07N 49°07' W 123°11'0 0.2
2018-Jul-15 14:16N 49°07' W 123°11'0 0.8
2018-Jul-15 13:59N 49°07' W 123°11'3 6.7
2018-Jul-15 13:28N 49°07' W 123°16'3 3.2
2018-Jul-15 12:26N 49°07' W 123°11'614.5
2018-Jul-15 11:59N 49°03' W 123°19'7 3.3
2018-Jul-15 09:58N 49°07' W 123°11'0 0.0
2018-Jul-15 09:29N 49°07' W 123°11'0 0.0
2018-Jul-15 09:00N 49°07' W 123°11'0 0.0
2018-Jul-15 08:30N 49°07' W 123°11'0 0.0
2018-Jul-15 05:24N 49°07' W 123°11'0 0.0
2018-Jul-15 04:59N 49°07' W 123°11'0 0.0
2018-Jul-15 04:28N 49°07' W 123°11'0 0.0
2018-Jul-15 04:00N 49°07' W 123°11'0 0.0
2018-Jul-15 03:30N 49°07' W 123°11'0 0.0
2018-Jul-15 03:00N 49°07' W 123°11'0 0.0
2018-Jul-15 02:30N 49°07' W 123°11'0 0.0
2018-Jul-15 02:00N 49°07' W 123°11'0 0.0
2018-Jul-15 01:29N 49°07' W 123°11'0 0.0
2018-Jul-15 01:00N 49°07' W 123°11'0 0.0
2018-Jul-15 00:30N 49°07' W 123°11'0 0.0
2018-Jul-14 23:48N 49°07' W 123°11'0 0.0
2018-Jul-14 20:44N 49°07' W 123°11'0 0.0
2018-Jul-14 20:30N 49°07' W 123°11'0 0.0
2018-Jul-14 20:00N 49°07' W 123°11'0 0.0
2018-Jul-14 19:30N 49°07' W 123°11'0 0.0
2018-Jul-14 18:59N 49°07' W 123°11'0 0.1
2018-Jul-14 18:30N 49°07' W 123°11'0 0.1
2018-Jul-14 18:00N 49°07' W 123°11'0 0.0
2018-Jul-14 17:30N 49°07' W 123°11'0 0.0
2018-Jul-14 17:00N 49°07' W 123°11'0 0.0
2018-Jul-14 16:30N 49°07' W 123°11'0 0.0
2018-Jul-14 15:59N 49°07' W 123°11'0 0.1
2018-Jul-14 15:30N 49°07' W 123°11'0 0.1
2018-Jul-14 14:59N 49°07' W 123°11'0 0.0
2018-Jul-14 06:48N 49°07' W 123°11'2 7.1
2018-Jul-14 06:30N 49°08' W 123°14'1 2.9
2018-Jul-14 06:00N 49°07' W 123°16'3 1.6
2018-Jul-14 03:57N 49°07' W 123°11'714.1
2018-Jul-14 03:29N 49°03' W 123°20'7 0.3
2018-Jul-13 08:39N 49°07' W 123°12'317.4
2018-Jul-13 08:30N 49°07' W 123°16'0 0.9
2018-Jul-13 07:58N 49°07' W 123°15'2 1.9
2018-Jul-13 06:40N 49°07' W 123°11'317.4
2018-Jul-13 06:29N 49°07' W 123°16'2 3.3
2018-Jul-13 05:59N 49°08' W 123°14'2 2.3
2018-Jul-13 05:07N 49°07' W 123°11'216.6
2018-Jul-13 05:00N 49°08' W 123°15'1 2.3
2018-Jul-13 04:26N 49°07' W 123°16'3 0.5
2018-Jul-12 23:07N 49°07' W 123°12'221.6
2018-Jul-12 23:00N 49°07' W 123°16'0 0.5
2018-Jul-12 22:29N 49°07' W 123°16'2 0.7
2018-Jul-12 19:34N 49°07' W 123°12'220.2
2018-Jul-12 19:27N 49°07' W 123°16'3 0.4
2018-Jul-12 11:38N 49°07' W 123°11'217.9
2018-Jul-12 11:30N 49°07' W 123°15'3 5.6
2018-Jul-12 10:58N 49°08' W 123°20'6 6.8
2018-Jul-12 10:09N 49°07' W 123°11'214.7
2018-Jul-12 10:00N 49°08' W 123°15'5 9.6
2018-Jul-12 09:29N 49°04' W 123°20'  
Track history (hours):
 
Tides and Currents Weather Stations Pressure Air Temp Water Temp Dewpoint Dewpoint Depression Visibility Wind Speed Wind Dir Waves Ship Positions

Pacific Navigator

Last reported at 2018-Jul-22 08:01 UTC. Time now 2018-Jul-23 00:28 UTC.
Position N 49°07' W 123°11'.

Length 35 m.

Type: Pleasure craft. MMSI: 123456788.

Date/timePositionNaut miles runAvg speedWind from/ knotsBaromVisibWave heightAir tempDewpointWater temp
2018-Jul-22 08:01N 49°07' W 123°11'0 6.6
2018-Jul-22 08:00N 49°07' W 123°12'713.1
2018-Jul-22 07:30N 49°02' W 123°18'6 0.2
2018-Jul-21 04:31N 49°08' W 123°13'220.7
2018-Jul-21 04:24N 49°07' W 123°16'3 4.7
2018-Jul-21 03:53N 49°05' W 123°19'5 0.4
2018-Jul-20 13:19N 49°07' W 123°12'616.2
2018-Jul-20 12:58N 49°05' W 123°20'5 5.6
2018-Jul-20 12:07N 49°08' W 123°13'416.9
2018-Jul-20 11:54N 49°06' W 123°18'2 5.8
2018-Jul-20 11:30N 49°04' W 123°19'6 0.2
2018-Jul-19 12:05N 49°08' W 123°12'417.6
2018-Jul-19 11:53N 49°06' W 123°18'2 4.8
2018-Jul-19 11:30N 49°05' W 123°19'6 3.6
2018-Jul-19 09:55N 49°07' W 123°11'4 7.4
2018-Jul-19 09:26N 49°07' W 123°17'2 0.2
2018-Jul-18 19:28N 49°08' W 123°13'1 2.4
2018-Jul-18 18:58N 49°07' W 123°15'3 0.3
2018-Jul-18 09:58N 49°07' W 123°11'4 7.7
2018-Jul-18 09:27N 49°07' W 123°17'4 1.3
2018-Jul-18 06:33N 49°07' W 123°12'113.5
2018-Jul-18 06:31N 49°08' W 123°13'1 0.1
2018-Jul-17 22:54N 49°08' W 123°13'3 6.8
2018-Jul-17 22:30N 49°07' W 123°17'4 0.2
2018-Jul-17 06:56N 49°07' W 123°12'714.9
2018-Jul-17 06:29N 49°04' W 123°21'2 0.2
2018-Jul-16 23:29N 49°06' W 123°19'5 0.4
2018-Jul-16 11:46N 49°08' W 123°13'614.9
2018-Jul-16 11:23N 49°05' W 123°20'6 2.7
2018-Jul-16 09:06N 49°07' W 123°12'218.7
2018-Jul-16 08:59N 49°08' W 123°15'5 9.7
2018-Jul-16 08:28N 49°03' W 123°19'6 2.5
2018-Jul-16 05:58N 49°07' W 123°12'2 3.5
2018-Jul-16 05:27N 49°08' W 123°15'2 0.4
2018-Jul-16 00:33N 49°07' W 123°12'223.0
2018-Jul-16 00:27N 49°07' W 123°15'3 7.1
2018-Jul-15 23:59N 49°05' W 123°19'6 0.8
2018-Jul-15 16:36N 49°07' W 123°11'0 0.0
2018-Jul-15 16:23N 49°07' W 123°11'0 0.0
2018-Jul-15 15:59N 49°07' W 123°11'0 0.0
2018-Jul-15 15:07N 49°07' W 123°11'0 0.2
2018-Jul-15 14:16N 49°07' W 123°11'0 0.8
2018-Jul-15 13:59N 49°07' W 123°11'3 6.7
2018-Jul-15 13:28N 49°07' W 123°16'3 3.2
2018-Jul-15 12:26N 49°07' W 123°11'614.5
2018-Jul-15 11:59N 49°03' W 123°19'7 3.3
2018-Jul-15 09:58N 49°07' W 123°11'0 0.0
2018-Jul-15 09:29N 49°07' W 123°11'0 0.0
2018-Jul-15 09:00N 49°07' W 123°11'0 0.0
2018-Jul-15 08:30N 49°07' W 123°11'0 0.0
2018-Jul-15 05:24N 49°07' W 123°11'0 0.0
2018-Jul-15 04:59N 49°07' W 123°11'0 0.0
2018-Jul-15 04:28N 49°07' W 123°11'0 0.0
2018-Jul-15 04:00N 49°07' W 123°11'0 0.0
2018-Jul-15 03:30N 49°07' W 123°11'0 0.0
2018-Jul-15 03:00N 49°07' W 123°11'0 0.0
2018-Jul-15 02:30N 49°07' W 123°11'0 0.0
2018-Jul-15 02:00N 49°07' W 123°11'0 0.0
2018-Jul-15 01:29N 49°07' W 123°11'0 0.0
2018-Jul-15 01:00N 49°07' W 123°11'0 0.0
2018-Jul-15 00:30N 49°07' W 123°11'0 0.0
2018-Jul-14 23:48N 49°07' W 123°11'0 0.0
2018-Jul-14 20:44N 49°07' W 123°11'0 0.0
2018-Jul-14 20:30N 49°07' W 123°11'0 0.0
2018-Jul-14 20:00N 49°07' W 123°11'0 0.0
2018-Jul-14 19:30N 49°07' W 123°11'0 0.0
2018-Jul-14 18:59N 49°07' W 123°11'0 0.1
2018-Jul-14 18:30N 49°07' W 123°11'0 0.1
2018-Jul-14 18:00N 49°07' W 123°11'0 0.0
2018-Jul-14 17:30N 49°07' W 123°11'0 0.0
2018-Jul-14 17:00N 49°07' W 123°11'0 0.0
2018-Jul-14 16:30N 49°07' W 123°11'0 0.0
2018-Jul-14 15:59N 49°07' W 123°11'0 0.1
2018-Jul-14 15:30N 49°07' W 123°11'0 0.1
2018-Jul-14 14:59N 49°07' W 123°11'0 0.0
2018-Jul-14 06:48N 49°07' W 123°11'2 7.1
2018-Jul-14 06:30N 49°08' W 123°14'1 2.9
2018-Jul-14 06:00N 49°07' W 123°16'3 1.6
2018-Jul-14 03:57N 49°07' W 123°11'714.1
2018-Jul-14 03:29N 49°03' W 123°20'7 0.3
2018-Jul-13 08:39N 49°07' W 123°12'317.4
2018-Jul-13 08:30N 49°07' W 123°16'0 0.9
2018-Jul-13 07:58N 49°07' W 123°15'2 1.9
2018-Jul-13 06:40N 49°07' W 123°11'317.4
2018-Jul-13 06:29N 49°07' W 123°16'2 3.3
2018-Jul-13 05:59N 49°08' W 123°14'2 2.3
2018-Jul-13 05:07N 49°07' W 123°11'216.6
2018-Jul-13 05:00N 49°08' W 123°15'1 2.3
2018-Jul-13 04:26N 49°07' W 123°16'3 0.5
2018-Jul-12 23:07N 49°07' W 123°12'221.6
2018-Jul-12 23:00N 49°07' W 123°16'0 0.5
2018-Jul-12 22:29N 49°07' W 123°16'2 0.7
2018-Jul-12 19:34N 49°07' W 123°12'220.2
2018-Jul-12 19:27N 49°07' W 123°16'3 0.4
2018-Jul-12 11:38N 49°07' W 123°11'217.9
2018-Jul-12 11:30N 49°07' W 123°15'3 5.6
2018-Jul-12 10:58N 49°08' W 123°20'6 6.8
2018-Jul-12 10:09N 49°07' W 123°11'214.7
2018-Jul-12 10:00N 49°08' W 123°15'5 9.6
2018-Jul-12 09:29N 49°04' W 123°20'  

Dump ship's entire track history